Time;durP1;ratioP1;P1;durP2;ratioP2;P2;SDS_P1;SDS_P2;PMS_P1;PMS_P2;Temp;Humidity;BMP_temperature;BMP_pressure;BME280_temperature;BME280_humidity;BME280_pressure;Samples;Min_cycle;Max_cycle;Signal;HPM_P1;HPM_P2
2020/12/09 00:00:10;;;;;;;73.95;37.05;;;1.40;96.00;;;;;;5028812;28;20049;-75
2020/12/09 00:02:37;;;;;;;72.28;34.85;;;1.20;96.50;;;;;;5027030;28;20551;-74
2020/12/09 00:05:09;;;;;;;97.28;41.47;;;1.00;96.80;;;;;;5029116;28;20136;-74
2020/12/09 00:07:37;;;;;;;85.35;40.40;;;1.00;97.10;;;;;;5027208;28;20087;-74
2020/12/09 00:10:07;;;;;;;80.00;37.05;;;1.00;97.10;;;;;;5028774;28;20618;-74
2020/12/09 00:12:34;;;;;;;77.00;36.58;;;1.00;97.00;;;;;;5028470;28;20076;-75
2020/12/09 00:15:02;;;;;;;59.40;31.17;;;1.00;97.00;;;;;;5027265;28;20128;-74
2020/12/09 00:17:29;;;;;;;56.90;28.52;;;1.00;97.10;;;;;;5024733;28;20053;-74
2020/12/09 00:19:55;;;;;;;55.05;27.10;;;1.00;96.90;;;;;;5021596;28;20065;-74
2020/12/09 00:22:23;;;;;;;57.63;30.10;;;1.10;96.70;;;;;;5027887;28;20077;-74
2020/12/09 00:24:53;;;;;;;55.42;29.67;;;1.20;96.50;;;;;;5027630;28;20053;-75
2020/12/09 00:27:20;;;;;;;78.05;35.72;;;1.10;96.40;;;;;;5027194;28;20053;-74
2020/12/09 00:29:46;;;;;;;76.07;35.85;;;1.10;96.50;;;;;;5028186;28;20041;-74
2020/12/09 00:32:12;;;;;;;77.43;36.53;;;1.00;96.50;;;;;;5027451;28;20195;-74
2020/12/09 00:34:38;;;;;;;55.00;28.33;;;0.90;96.90;;;;;;5028022;28;20132;-75
2020/12/09 00:37:05;;;;;;;55.75;28.48;;;0.90;97.00;;;;;;5028217;28;20056;-75
2020/12/09 00:39:31;;;;;;;64.45;33.13;;;1.00;96.80;;;;;;5027099;28;20088;-75
2020/12/09 00:41:57;;;;;;;75.63;35.95;;;0.90;96.80;;;;;;5027637;28;20045;-75
2020/12/09 00:44:24;;;;;;;78.25;38.05;;;0.90;97.00;;;;;;5027442;28;20422;-75
2020/12/09 00:46:50;;;;;;;77.53;33.75;;;0.80;97.10;;;;;;5025765;28;20085;-75
2020/12/09 00:49:17;;;;;;;71.60;31.35;;;0.80;97.20;;;;;;5027023;28;20042;-75
2020/12/09 00:51:43;;;;;;;53.88;27.60;;;0.80;97.10;;;;;;5027258;28;20046;-75
2020/12/09 00:54:09;;;;;;;47.78;25.80;;;0.80;97.00;;;;;;5027139;28;20073;-75
2020/12/09 00:56:36;;;;;;;48.55;24.58;;;0.90;97.00;;;;;;5022982;28;20038;-75
2020/12/09 00:59:03;;;;;;;60.42;30.48;;;0.90;96.80;;;;;;5022754;28;20073;-75
2020/12/09 01:01:30;;;;;;;56.90;27.77;;;0.90;96.80;;;;;;5025255;28;20038;-75
2020/12/09 01:03:57;;;;;;;54.80;28.60;;;0.90;96.80;;;;;;5025840;28;20128;-75
2020/12/09 01:06:24;;;;;;;49.25;25.27;;;1.00;96.80;;;;;;5025919;28;20084;-75
2020/12/09 01:08:50;;;;;;;51.17;26.52;;;1.10;96.80;;;;;;5027234;28;20046;-75
2020/12/09 01:11:21;;;;;;;57.38;28.13;;;1.10;96.60;;;;;;5026087;28;20103;-74
2020/12/09 01:13:48;;;;;;;59.05;29.35;;;1.10;96.60;;;;;;5027006;28;20140;-75
2020/12/09 01:16:15;;;;;;;54.92;28.23;;;1.10;96.70;;;;;;5028089;28;20054;-75
2020/12/09 01:18:42;;;;;;;53.83;26.67;;;1.20;96.70;;;;;;5025160;28;20483;-75
2020/12/09 01:21:08;;;;;;;56.15;29.45;;;1.30;96.30;;;;;;5026650;28;20075;-75
2020/12/09 01:23:35;;;;;;;64.57;31.38;;;1.30;96.10;;;;;;5027918;28;20088;-75
2020/12/09 01:26:07;;;;;;;61.28;29.80;;;1.30;96.00;;;;;;5026385;28;20563;-76
2020/12/09 01:28:34;;;;;;;64.90;32.05;;;1.40;96.00;;;;;;5025394;28;20046;-75
2020/12/09 01:31:00;;;;;;;48.88;26.70;;;1.40;96.00;;;;;;5029077;28;20048;-75
2020/12/09 01:33:26;;;;;;;44.83;25.58;;;1.50;95.90;;;;;;5030074;28;20065;-75
2020/12/09 01:35:53;;;;;;;54.58;29.45;;;1.60;95.80;;;;;;5030294;28;20115;-75
2020/12/09 01:38:19;;;;;;;65.63;34.22;;;1.60;95.90;;;;;;5030053;28;20061;-74
2020/12/09 01:40:46;;;;;;;69.18;32.42;;;1.50;95.90;;;;;;5028676;28;20084;-74
2020/12/09 01:43:12;;;;;;;54.53;27.15;;;1.60;96.00;;;;;;5030802;28;20081;-75
2020/12/09 01:45:38;;;;;;;54.97;27.88;;;1.60;96.00;;;;;;5030656;28;20050;-74
2020/12/09 01:48:09;;;;;;;52.63;27.02;;;1.60;95.90;;;;;;5028538;28;20482;-75
2020/12/09 01:50:36;;;;;;;51.47;28.75;;;1.60;95.60;;;;;;5030966;28;20204;-75
2020/12/09 01:53:03;;;;;;;60.20;30.77;;;1.60;95.50;;;;;;5029535;28;20101;-74
2020/12/09 01:55:29;;;;;;;50.47;28.58;;;1.60;95.70;;;;;;5031008;28;20079;-74
2020/12/09 01:57:55;;;;;;;50.42;26.55;;;1.60;96.00;;;;;;5022498;28;20127;-75
2020/12/09 02:00:22;;;;;;;61.38;30.17;;;1.60;95.90;;;;;;5030775;28;20562;-75
2020/12/09 02:02:49;;;;;;;61.47;32.13;;;1.60;95.80;;;;;;5030348;28;20475;-75
2020/12/09 02:05:16;;;;;;;50.10;28.00;;;1.60;95.90;;;;;;5030671;28;20084;-75
2020/12/09 02:07:43;;;;;;;60.00;31.77;;;1.70;96.00;;;;;;5030505;28;20141;-75
2020/12/09 02:10:09;;;;;;;51.42;27.35;;;1.60;95.90;;;;;;5028436;28;20045;-75
2020/12/09 02:12:39;;;;;;;60.95;31.63;;;1.70;96.10;;;;;;5028904;28;20045;-75
2020/12/09 02:15:06;;;;;;;56.40;29.63;;;1.70;96.00;;;;;;5029729;28;20053;-75
2020/12/09 02:17:33;;;;;;;57.38;28.20;;;1.80;96.30;;;;;;5029555;28;20045;-75
2020/12/09 02:19:59;;;;;;;55.58;29.13;;;1.80;96.20;;;;;;5029815;28;20045;-75
2020/12/09 02:22:26;;;;;;;44.15;24.23;;;1.80;96.20;;;;;;5028697;28;20148;-75
2020/12/09 02:24:52;;;;;;;45.45;24.95;;;1.90;96.20;;;;;;5029591;28;20129;-75
2020/12/09 02:27:19;;;;;;;56.63;29.27;;;2.00;96.00;;;;;;5029601;28;20050;-75
2020/12/09 02:29:45;;;;;;;41.28;23.85;;;2.10;95.90;;;;;;5030018;28;20060;-75
2020/12/09 02:32:12;;;;;;;49.78;27.80;;;2.10;96.00;;;;;;5030139;28;20159;-75
2020/12/09 02:34:38;;;;;;;45.88;25.75;;;2.10;95.70;;;;;;5030050;28;20057;-75
2020/12/09 02:37:04;;;;;;;39.80;23.60;;;2.20;95.70;;;;;;5029959;28;20081;-75
2020/12/09 02:39:36;;;;;;;44.10;25.30;;;2.30;95.60;;;;;;5028403;28;20514;-76
2020/12/09 02:42:04;;;;;;;44.78;24.05;;;2.30;95.50;;;;;;5026595;28;20063;-74
2020/12/09 02:44:31;;;;;;;56.20;29.73;;;2.40;95.30;;;;;;5029550;28;20085;-76
2020/12/09 02:46:58;;;;;;;47.72;27.33;;;2.30;95.40;;;;;;5029112;28;20072;-75
2020/12/09 02:49:25;;;;;;;42.40;25.27;;;2.30;95.50;;;;;;5029942;28;20045;-76
2020/12/09 02:51:51;;;;;;;42.88;24.25;;;2.30;95.40;;;;;;5022377;28;20068;-75
2020/12/09 02:54:18;;;;;;;39.67;22.35;;;2.30;95.40;;;;;;5029518;28;20073;-76
2020/12/09 02:56:44;;;;;;;53.70;28.42;;;2.40;95.20;;;;;;5027637;28;20084;-76
2020/12/09 02:59:11;;;;;;;45.05;25.45;;;2.30;95.20;;;;;;5030671;28;20132;-76
2020/12/09 03:01:37;;;;;;;46.95;26.42;;;2.30;95.40;;;;;;5027636;28;20077;-76
2020/12/09 03:04:03;;;;;;;40.67;23.17;;;2.40;95.40;;;;;;5029218;28;20045;-76
2020/12/09 03:06:30;;;;;;;39.40;23.45;;;2.40;95.20;;;;;;5029611;28;20104;-75
2020/12/09 03:08:56;;;;;;;42.92;25.00;;;2.50;95.20;;;;;;5029357;28;20076;-76
2020/12/09 03:11:23;;;;;;;47.45;24.23;;;2.50;94.90;;;;;;5028413;28;20103;-76
2020/12/09 03:13:49;;;;;;;35.97;20.90;;;2.40;95.10;;;;;;5030267;28;20128;-76
2020/12/09 03:16:16;;;;;;;41.88;25.23;;;2.40;95.30;;;;;;5028201;28;20124;-76
2020/12/09 03:18:42;;;;;;;42.58;24.42;;;2.40;95.30;;;;;;5028871;28;20045;-75
2020/12/09 03:21:29;;;;;;;43.50;23.92;;;2.50;95.20;;;;;;5027165;28;20128;-76
2020/12/09 03:23:55;;;;;;;37.17;19.73;;;2.50;95.10;;;;;;5029756;28;20049;-76
2020/12/09 03:26:26;;;;;;;36.58;20.75;;;2.50;94.70;;;;;;5027260;28;20050;-76
2020/12/09 03:28:56;;;;;;;34.67;20.67;;;2.60;94.90;;;;;;5028422;28;20235;-76
2020/12/09 03:31:22;;;;;;;34.67;20.40;;;2.60;94.70;;;;;;5026648;28;20050;-76
2020/12/09 03:33:48;;;;;;;27.85;17.60;;;2.60;94.70;;;;;;5028261;28;20084;-76
2020/12/09 03:36:15;;;;;;;25.60;16.13;;;2.60;94.60;;;;;;5029646;28;20044;-76
2020/12/09 03:38:42;;;;;;;28.67;17.67;;;2.60;94.60;;;;;;5027923;28;20073;-76
2020/12/09 03:41:08;;;;;;;30.58;17.88;;;2.60;94.50;;;;;;5027030;28;20104;-75
2020/12/09 03:43:34;;;;;;;31.38;17.25;;;2.60;94.40;;;;;;5028869;28;20146;-76
2020/12/09 03:46:01;;;;;;;28.45;16.02;;;2.60;94.60;;;;;;5027412;28;20045;-76
2020/12/09 03:48:27;;;;;;;26.00;16.67;;;2.60;94.50;;;;;;5027208;28;20073;-76
2020/12/09 03:50:53;;;;;;;30.75;16.02;;;2.70;94.50;;;;;;5022648;28;20069;-75
2020/12/09 03:53:21;;;;;;;26.08;16.65;;;2.60;94.10;;;;;;5027770;28;20104;-76
2020/12/09 03:55:48;;;;;;;26.75;16.23;;;2.60;94.30;;;;;;5027088;28;20505;-76
2020/12/09 03:58:14;;;;;;;24.50;14.93;;;2.60;94.20;;;;;;5025278;28;20128;-77
2020/12/09 04:00:42;;;;;;;24.25;13.52;;;2.70;94.50;;;;;;5028271;28;20136;-76
2020/12/09 04:03:08;;;;;;;25.80;15.25;;;2.70;94.30;;;;;;5028631;28;20072;-76
2020/12/09 04:05:34;;;;;;;24.10;14.02;;;2.80;94.10;;;;;;5027875;28;20146;-76
2020/12/09 04:08:01;;;;;;;24.95;15.40;;;2.80;94.20;;;;;;5027641;28;20136;-76
2020/12/09 04:10:27;;;;;;;25.55;16.30;;;2.80;94.10;;;;;;5026502;28;20148;-76
2020/12/09 04:12:53;;;;;;;25.02;14.60;;;2.70;94.20;;;;;;5026700;28;20164;-76
2020/12/09 04:15:20;;;;;;;26.60;15.40;;;2.80;94.20;;;;;;5026126;28;20183;-76
2020/12/09 04:17:46;;;;;;;27.35;15.43;;;2.90;94.20;;;;;;5026818;28;20053;-75
2020/12/09 04:20:14;;;;;;;28.52;16.98;;;2.90;94.00;;;;;;5028980;28;20359;-76
2020/12/09 04:22:40;;;;;;;32.17;19.48;;;2.80;94.20;;;;;;5027231;28;20513;-76
2020/12/09 04:25:07;;;;;;;27.98;17.17;;;2.80;94.50;;;;;;5027119;28;20546;-75
2020/12/09 04:27:33;;;;;;;31.92;18.80;;;2.70;94.60;;;;;;5028039;28;20632;-76
2020/12/09 04:30:00;;;;;;;27.98;16.67;;;2.50;94.90;;;;;;5028255;28;20148;-75
2020/12/09 04:32:26;;;;;;;29.90;18.15;;;2.50;95.00;;;;;;5026189;28;20042;-76
2020/12/09 04:34:57;;;;;;;26.23;15.85;;;2.60;94.90;;;;;;5027577;28;20597;-76
2020/12/09 04:37:27;;;;;;;24.83;15.63;;;2.60;94.90;;;;;;5027668;28;20119;-76
2020/12/09 04:39:55;;;;;;;27.83;14.40;;;2.70;94.90;;;;;;5026512;28;20042;-75
2020/12/09 04:42:23;;;;;;;25.88;15.57;;;2.70;94.80;;;;;;5028602;28;20128;-76
2020/12/09 04:44:51;;;;;;;27.58;15.98;;;2.60;94.90;;;;;;5026808;28;20077;-75
2020/12/09 04:47:18;;;;;;;26.15;16.05;;;2.60;94.90;;;;;;5028433;28;20140;-76
2020/12/09 04:49:47;;;;;;;29.15;17.75;;;2.60;94.90;;;;;;5027011;28;20124;-75
2020/12/09 04:52:35;;;;;;;27.08;15.90;;;2.40;95.30;;;;;;5027934;28;20526;-76
2020/12/09 04:55:05;;;;;;;29.77;17.38;;;2.40;95.60;;;;;;5027380;28;20052;-76
2020/12/09 04:57:34;;;;;;;28.88;16.98;;;2.40;95.40;;;;;;5025715;28;20161;-76
2020/12/09 05:00:04;;;;;;;31.27;17.67;;;2.40;95.40;;;;;;5026862;28;20050;-75
2020/12/09 05:02:41;;;;;;;26.98;15.25;;;2.40;95.40;;;;;;5027278;28;20132;-76
2020/12/09 05:05:15;;;;;;;22.80;14.20;;;2.50;95.30;;;;;;5027859;28;20104;-75
2020/12/09 05:07:47;;;;;;;26.92;16.40;;;2.40;95.30;;;;;;5029492;28;20128;-75
2020/12/09 05:10:20;;;;;;;30.63;18.20;;;2.40;95.40;;;;;;5030190;28;20117;-76
2020/12/09 05:12:50;;;;;;;43.33;18.45;;;2.30;95.50;;;;;;5031317;28;20121;-76
2020/12/09 05:15:23;;;;;;;25.85;15.38;;;2.20;95.90;;;;;;5030888;28;20085;-75
2020/12/09 05:18:10;;;;;;;30.40;17.23;;;2.30;95.70;;;;;;5031420;28;20503;-75
2020/12/09 05:20:40;;;;;;;26.88;16.70;;;2.50;95.40;;;;;;5027853;28;20073;-75
2020/12/09 05:23:08;;;;;;;29.73;16.52;;;2.60;95.00;;;;;;5030669;28;20119;-75
2020/12/09 05:25:37;;;;;;;30.15;18.52;;;2.60;95.40;;;;;;5029797;28;20574;-76
2020/12/09 05:28:05;;;;;;;27.67;15.57;;;2.60;94.70;;;;;;5026841;28;20516;-75
2020/12/09 05:30:43;;;;;;;24.02;14.95;;;2.70;94.70;;;;;;5030295;28;20129;-75
2020/12/09 05:33:21;;;;;;;26.55;16.85;;;2.80;94.70;;;;;;5031875;28;20092;-76
2020/12/09 05:36:00;;;;;;;23.35;14.10;;;2.70;94.60;;;;;;5030170;28;20061;-76
2020/12/09 05:38:27;;;;;;;24.30;14.88;;;2.80;94.70;;;;;;5028945;28;20073;-76
2020/12/09 05:40:55;;;;;;;24.98;15.05;;;2.80;94.70;;;;;;5030135;28;20140;-75
2020/12/09 05:43:21;;;;;;;31.55;18.15;;;2.90;94.70;;;;;;5030865;28;20466;-76
2020/12/09 05:45:48;;;;;;;29.85;16.77;;;2.80;94.80;;;;;;5030423;28;20077;-76
2020/12/09 05:48:21;;;;;;;26.23;15.95;;;2.80;94.90;;;;;;5030538;28;20038;-75
2020/12/09 05:50:58;;;;;;;28.73;15.98;;;2.80;94.90;;;;;;5028110;28;20140;-76
2020/12/09 05:53:27;;;;;;;24.38;14.85;;;2.80;94.80;;;;;;5027789;28;20130;-75
2020/12/09 05:56:15;;;;;;;24.38;14.32;;;2.80;94.60;;;;;;5030214;28;20152;-75
2020/12/09 05:58:48;;;;;;;26.75;14.93;;;2.90;94.80;;;;;;5027900;28;20076;-76
2020/12/09 06:01:21;;;;;;;27.30;15.48;;;2.90;94.70;;;;;;5029713;28;20050;-75
2020/12/09 06:03:56;;;;;;;21.48;12.82;;;2.90;94.60;;;;;;5030180;28;20179;-75
2020/12/09 06:06:27;;;;;;;22.73;14.55;;;3.00;94.70;;;;;;5029205;28;20137;-75
2020/12/09 06:09:01;;;;;;;25.88;16.23;;;3.00;94.60;;;;;;5029697;28;20227;-76
2020/12/09 06:11:32;;;;;;;26.98;15.38;;;2.90;94.60;;;;;;5030228;28;20111;-76
2020/12/09 06:14:00;;;;;;;23.58;13.73;;;2.90;94.80;;;;;;5030792;28;20124;-76
2020/12/09 06:16:27;;;;;;;30.02;17.42;;;2.90;94.80;;;;;;5027091;28;20124;-75
2020/12/09 06:18:54;;;;;;;29.35;15.65;;;2.90;94.60;;;;;;5028070;28;20136;-75
2020/12/09 06:21:22;;;;;;;32.05;18.48;;;2.90;94.90;;;;;;5027877;28;20049;-75
2020/12/09 06:23:49;;;;;;;28.88;16.38;;;2.80;94.80;;;;;;5029991;28;20148;-75
2020/12/09 06:26:15;;;;;;;30.40;14.90;;;2.80;95.10;;;;;;5029373;28;20100;-75
2020/12/09 06:28:47;;;;;;;23.00;13.40;;;2.70;95.20;;;;;;5027815;28;20136;-75
2020/12/09 06:31:17;;;;;;;26.90;15.40;;;2.80;95.30;;;;;;5029889;28;20103;-75
2020/12/09 06:33:46;;;;;;;30.75;19.17;;;2.80;95.00;;;;;;5029141;28;20136;-75
2020/12/09 06:36:23;;;;;;;34.20;19.80;;;2.70;95.10;;;;;;5029223;28;20045;-75
2020/12/09 06:39:07;;;;;;;31.15;19.55;;;2.70;95.10;;;;;;5030321;28;20065;-75
2020/12/09 06:41:35;;;;;;;23.83;15.00;;;2.70;95.10;;;;;;5030304;28;20180;-75
2020/12/09 06:44:13;;;;;;;29.95;17.25;;;2.80;95.20;;;;;;5030562;28;20135;-75
2020/12/09 06:47:09;;;;;;;28.05;15.40;;;2.70;95.40;;;;;;5029785;28;20140;-74
2020/12/09 06:49:37;;;;;;;20.40;11.95;;;2.70;95.60;;;;;;5025496;28;20076;-75
2020/12/09 06:52:10;;;;;;;19.60;11.73;;;2.80;95.40;;;;;;5027283;28;20124;-75
2020/12/09 06:54:41;;;;;;;26.52;15.30;;;2.90;95.30;;;;;;5020330;28;20103;-75
2020/12/09 06:57:38;;;;;;;33.35;19.08;;;2.80;95.20;;;;;;5022170;28;20103;-75
2020/12/09 07:00:14;;;;;;;36.40;20.92;;;2.60;95.50;;;;;;5028058;28;20052;-75
2020/12/09 07:02:41;;;;;;;36.97;21.13;;;2.60;95.50;;;;;;5025252;28;20490;-75
2020/12/09 07:05:18;;;;;;;31.52;19.30;;;2.60;95.50;;;;;;5023248;28;20506;-75
2020/12/09 07:07:49;;;;;;;25.33;15.30;;;2.70;95.50;;;;;;5026988;28;20054;-75
2020/12/09 07:10:24;;;;;;;25.85;14.77;;;2.80;95.50;;;;;;5019237;28;20145;-75
2020/12/09 07:13:12;;;;;;;24.25;12.65;;;2.80;95.50;;;;;;5016770;28;20152;-75
2020/12/09 07:15:42;;;;;;;20.75;12.57;;;2.80;95.50;;;;;;5017848;28;20125;-75
2020/12/09 07:18:09;;;;;;;28.48;15.68;;;2.80;95.30;;;;;;5022839;28;20129;-75
2020/12/09 07:20:35;;;;;;;28.05;16.27;;;2.70;95.50;;;;;;5017745;28;20446;-75
2020/12/09 07:23:03;;;;;;;32.40;18.00;;;2.70;95.80;;;;;;5027167;28;20046;-75
2020/12/09 07:25:30;;;;;;;27.40;15.50;;;2.70;95.80;;;;;;5018109;28;20148;-75
2020/12/09 07:27:57;;;;;;;24.70;14.13;;;2.70;95.70;;;;;;5025066;28;20076;-75
2020/12/09 07:30:24;;;;;;;20.50;12.27;;;2.70;95.80;;;;;;5024796;28;20082;-75
2020/12/09 07:32:52;;;;;;;23.80;12.65;;;2.80;95.70;;;;;;5027545;28;20071;-74
2020/12/09 07:35:18;;;;;;;25.35;14.35;;;2.80;95.50;;;;;;5016158;28;20045;-75
2020/12/09 07:37:50;;;;;;;29.05;15.55;;;2.80;95.50;;;;;;5015696;28;20084;-75
2020/12/09 07:40:28;;;;;;;;;;;2.80;95.40;;;;;;5012821;28;20486;-75
2020/12/09 07:43:08;;;;;;;21.42;11.88;;;2.80;95.50;;;;;;5026413;28;19920;-74
2020/12/09 07:45:36;;;;;;;21.77;11.40;;;2.90;95.50;;;;;;5015655;28;20108;-75
2020/12/09 07:48:08;;;;;;;27.05;16.10;;;3.00;95.30;;;;;;5025347;28;20064;-75
2020/12/09 07:50:36;;;;;;;24.60;14.88;;;3.00;95.20;;;;;;5024099;28;20124;-74
2020/12/09 07:53:03;;;;;;;26.25;14.77;;;3.10;95.10;;;;;;5024766;28;20053;-75
2020/12/09 07:55:33;;;;;;;24.38;15.25;;;3.10;95.10;;;;;;5027609;28;20079;-75
2020/12/09 07:58:05;;;;;;;24.13;14.90;;;3.10;95.00;;;;;;5016874;28;20045;-75
2020/12/09 08:00:41;;;;;;;24.27;14.45;;;3.10;95.20;;;;;;5016421;28;20049;-75
2020/12/09 08:03:20;;;;;;;25.30;15.65;;;3.10;95.00;;;;;;5023187;28;20388;-74
2020/12/09 08:05:46;;;;;;;37.25;19.17;;;3.20;95.10;;;;;;5020623;28;20060;-75
2020/12/09 08:08:13;;;;;;;25.70;15.35;;;3.20;95.00;;;;;;5019016;28;20140;-75
2020/12/09 08:10:43;;;;;;;35.97;20.08;;;3.20;94.90;;;;;;5023054;28;20182;-75
2020/12/09 08:13:26;;;;;;;42.65;24.88;;;3.30;94.80;;;;;;5024132;28;20119;-75
2020/12/09 08:15:58;;;;;;;;;;;3.20;94.80;;;;;;5025248;28;20399;-75
2020/12/09 08:18:25;;;;;;;46.63;28.35;;;3.10;94.90;;;;;;5026146;28;20441;-74
2020/12/09 08:20:53;;;;;;;51.38;29.38;;;3.10;94.80;;;;;;5024028;28;20079;-75
2020/12/09 08:23:20;;;;;;;42.45;24.30;;;3.00;95.10;;;;;;5023529;28;20493;-74
2020/12/09 08:25:53;;;;;;;43.35;23.38;;;3.00;95.00;;;;;;5013382;28;20053;-74
2020/12/09 08:28:21;;;;;;;39.20;22.60;;;3.10;95.10;;;;;;5019492;28;20139;-75
2020/12/09 08:30:48;;;;;;;37.65;20.70;;;3.10;95.00;;;;;;5010622;28;20084;-74
2020/12/09 08:33:20;;;;;;;37.40;22.42;;;3.10;94.80;;;;;;5010903;28;20082;-74
2020/12/09 08:35:59;;;;;;;38.75;21.38;;;3.20;94.70;;;;;;5025534;28;20049;-74
2020/12/09 08:38:43;;;;;;;36.97;22.92;;;3.20;94.90;;;;;;5024282;28;20050;-74
2020/12/09 08:41:32;;;;;;;36.58;20.77;;;3.20;94.50;;;;;;5027202;28;20057;-74
2020/12/09 08:44:06;;;;;;;35.05;20.30;;;3.20;94.80;;;;;;5018576;28;20068;-74
2020/12/09 08:46:34;;;;;;;36.00;19.85;;;3.40;94.80;;;;;;5021599;28;20061;-74
2020/12/09 08:49:00;;;;;;;32.58;19.65;;;3.50;94.40;;;;;;5020174;28;20099;-74
2020/12/09 08:51:29;;;;;;;36.53;21.98;;;3.60;93.90;;;;;;5019983;28;20053;-74
2020/12/09 08:53:57;;;;;;;33.08;19.90;;;3.60;93.70;;;;;;5026138;28;20128;-74
2020/12/09 08:56:25;;;;;;;36.28;20.92;;;3.60;94.00;;;;;;5022762;28;20077;-74
2020/12/09 08:58:51;;;;;;;30.92;18.83;;;3.60;93.80;;;;;;5020637;28;20510;-76
2020/12/09 09:01:18;;;;;;;33.67;18.65;;;3.60;94.00;;;;;;5013682;28;20174;-76
2020/12/09 09:03:46;;;;;;;33.67;20.33;;;3.70;93.80;;;;;;5020716;28;20284;-75
2020/12/09 09:06:12;;;;;;;32.28;19.15;;;3.80;93.70;;;;;;5020593;28;20058;-75
2020/12/09 09:08:39;;;;;;;34.88;20.58;;;3.80;93.50;;;;;;5021517;28;20053;-75
2020/12/09 09:11:05;;;;;;;32.72;18.95;;;3.80;93.40;;;;;;5021062;28;20204;-75
2020/12/09 09:13:31;;;;;;;32.40;19.08;;;3.80;93.40;;;;;;5020380;28;20136;-75
2020/12/09 09:16:05;;;;;;;29.42;17.13;;;3.90;93.30;;;;;;5026253;28;20562;-75
2020/12/09 09:18:32;;;;;;;29.45;17.42;;;3.90;93.30;;;;;;5014330;28;20054;-75
2020/12/09 09:20:58;;;;;;;31.48;19.40;;;3.90;93.30;;;;;;5026168;28;20420;-75
2020/12/09 09:23:25;;;;;;;32.47;19.63;;;3.90;93.10;;;;;;5017275;28;20192;-76
2020/12/09 09:26:08;;;;;;;32.55;18.50;;;3.90;93.10;;;;;;5015443;28;20053;-75
2020/12/09 09:28:34;;;;;;;34.47;20.95;;;4.00;93.40;;;;;;5016740;28;20073;-75
2020/12/09 09:31:01;;;;;;;32.53;20.08;;;4.00;93.30;;;;;;5024028;28;20041;-75
2020/12/09 09:33:27;;;;;;;31.50;19.08;;;4.00;93.20;;;;;;5015457;28;20116;-76
2020/12/09 09:35:53;;;;;;;35.90;22.10;;;4.00;93.50;;;;;;5023195;28;20132;-75
2020/12/09 09:38:20;;;;;;;46.78;25.98;;;4.00;93.50;;;;;;5020547;28;20136;-75
2020/12/09 09:40:46;;;;;;;49.67;27.08;;;3.70;94.00;;;;;;5026339;28;20121;-75
2020/12/09 09:43:13;;;;;;;41.90;24.08;;;3.50;94.60;;;;;;5018114;28;20049;-76
2020/12/09 09:45:39;;;;;;;37.75;22.73;;;3.50;94.80;;;;;;5015435;28;20053;-76
2020/12/09 09:48:06;;;;;;;40.55;23.27;;;3.50;94.80;;;;;;5015931;28;20076;-76
2020/12/09 09:50:32;;;;;;;44.40;26.73;;;3.60;94.70;;;;;;5015420;28;20459;-75
2020/12/09 09:52:58;;;;;;;41.15;24.55;;;3.60;94.50;;;;;;5022246;28;20120;-76
2020/12/09 09:55:25;;;;;;;39.88;24.60;;;3.40;94.90;;;;;;5021908;28;20046;-75
2020/12/09 09:57:51;;;;;;;42.50;24.65;;;3.40;95.10;;;;;;5019585;28;20145;-75
2020/12/09 10:00:18;;;;;;;36.50;22.13;;;3.50;95.30;;;;;;5024615;28;20129;-75
2020/12/09 10:02:44;;;;;;;50.70;26.58;;;3.50;95.00;;;;;;5026242;28;20136;-75
2020/12/09 10:05:10;;;;;;;43.63;23.98;;;3.70;94.80;;;;;;5019215;28;20073;-75
2020/12/09 10:07:36;;;;;;;45.70;25.35;;;3.70;94.50;;;;;;5027147;28;20729;-75
2020/12/09 10:10:03;;;;;;;39.35;22.58;;;3.70;94.30;;;;;;5020389;28;20371;-74
2020/12/09 10:12:31;;;;;;;42.20;23.85;;;3.80;94.40;;;;;;5020349;28;20077;-75
2020/12/09 10:14:58;;;;;;;46.80;27.40;;;3.70;94.40;;;;;;5025193;28;20072;-75
2020/12/09 10:17:24;;;;;;;50.13;27.63;;;3.80;94.20;;;;;;5022202;28;20057;-75
2020/12/09 10:19:51;;;;;;;54.75;29.77;;;3.70;94.40;;;;;;5026816;28;20182;-75
2020/12/09 10:22:17;;;;;;;45.75;25.42;;;3.70;94.50;;;;;;5022591;28;21819;-75
2020/12/09 10:24:44;;;;;;;49.80;26.92;;;3.60;94.90;;;;;;5029543;28;20050;-76
2020/12/09 10:27:10;;;;;;;45.45;25.90;;;3.50;94.80;;;;;;5021285;28;20041;-75
2020/12/09 10:29:36;;;;;;;45.33;24.52;;;3.50;94.70;;;;;;5024557;28;20122;-75
2020/12/09 10:32:02;;;;;;;38.22;22.30;;;3.40;94.60;;;;;;5024944;28;20103;-75
2020/12/09 10:34:29;;;;;;;42.40;24.83;;;3.40;94.80;;;;;;5022848;28;20053;-75
2020/12/09 10:36:55;;;;;;;42.55;24.88;;;3.30;95.10;;;;;;5026414;28;20073;-75
2020/12/09 10:39:23;;;;;;;189.63;73.07;;;3.30;95.10;;;;;;5014932;28;20145;-75
2020/12/09 10:41:51;;;;;;;74.70;35.28;;;3.40;95.10;;;;;;5011349;28;20457;-74
2020/12/09 10:44:20;;;;;;;54.03;27.63;;;3.40;94.70;;;;;;5017903;28;20104;-74
2020/12/09 10:46:47;;;;;;;42.78;23.88;;;3.30;94.80;;;;;;5013589;28;20133;-75
2020/12/09 10:49:15;;;;;;;42.70;23.63;;;3.30;94.90;;;;;;5010180;28;20037;-75
2020/12/09 10:51:44;;;;;;;48.08;23.45;;;3.20;94.90;;;;;;5025366;28;20073;-75
2020/12/09 10:54:11;;;;;;;45.28;24.52;;;3.20;94.90;;;;;;5025970;28;20045;-75
2020/12/09 10:56:37;;;;;;;45.63;26.65;;;3.20;95.00;;;;;;5024765;28;20046;-75
2020/12/09 10:59:04;;;;;;;45.05;25.80;;;3.10;95.40;;;;;;5018656;28;20140;-75
2020/12/09 11:01:32;;;;;;;44.85;24.30;;;3.10;95.10;;;;;;5021862;28;20054;-74
2020/12/09 11:03:59;;;;;;;37.65;21.95;;;3.10;94.80;;;;;;5016981;28;20054;-75
2020/12/09 11:06:26;;;;;;;39.80;22.65;;;3.10;94.90;;;;;;5018631;28;20131;-75
2020/12/09 11:08:53;;;;;;;39.90;22.55;;;3.00;94.80;;;;;;5009909;28;20573;-74
2020/12/09 11:11:21;;;;;;;37.92;22.60;;;3.10;94.80;;;;;;5014171;28;20481;-74
2020/12/09 11:13:48;;;;;;;40.88;21.85;;;3.10;94.70;;;;;;5028565;28;20107;-74
2020/12/09 11:16:20;;;;;;;34.15;19.85;;;3.10;94.70;;;;;;5020214;28;20103;-75
2020/12/09 11:18:46;;;;;;;31.30;18.27;;;3.00;94.50;;;;;;5011728;28;20133;-74
2020/12/09 11:21:17;;;;;;;35.90;20.13;;;3.10;94.70;;;;;;5019386;28;20177;-74
2020/12/09 11:23:47;;;;;;;34.95;20.13;;;3.10;94.30;;;;;;5022265;28;20081;-75
2020/12/09 11:26:14;;;;;;;31.80;18.83;;;3.20;94.10;;;;;;5011785;28;20106;-75
2020/12/09 11:28:41;;;;;;;35.10;18.95;;;3.30;93.90;;;;;;5020915;28;20094;-75
2020/12/09 11:31:08;;;;;;;38.42;20.35;;;3.30;93.60;;;;;;5017940;28;20042;-75
2020/12/09 11:33:34;;;;;;;27.98;16.02;;;3.30;93.90;;;;;;5013365;28;20205;-75
2020/12/09 11:36:02;;;;;;;30.02;17.35;;;3.40;93.50;;;;;;5013068;28;20050;-75
2020/12/09 11:38:28;;;;;;;27.80;16.52;;;3.50;93.60;;;;;;5019701;28;20089;-74
2020/12/09 11:40:55;;;;;;;25.70;15.50;;;3.50;93.60;;;;;;5024517;28;20084;-74
2020/12/09 11:43:24;;;;;;;24.73;15.20;;;3.60;92.80;;;;;;5024767;28;20140;-74
2020/12/09 11:45:52;;;;;;;25.40;15.48;;;3.70;92.20;;;;;;5024316;28;20132;-75
2020/12/09 11:48:18;;;;;;;22.65;13.07;;;3.70;92.20;;;;;;5023749;28;20084;-76
2020/12/09 11:50:45;;;;;;;20.95;12.90;;;3.70;91.90;;;;;;5021928;28;20087;-75
2020/12/09 11:53:12;;;;;;;24.35;13.85;;;3.80;92.60;;;;;;5017570;28;20050;-75
2020/12/09 11:55:39;;;;;;;21.08;13.10;;;3.80;92.10;;;;;;5005698;28;20061;-75
2020/12/09 11:58:05;;;;;;;19.60;12.05;;;3.90;91.50;;;;;;5018447;28;20110;-75
2020/12/09 12:00:32;;;;;;;19.17;11.52;;;3.80;91.20;;;;;;5023219;28;20124;-75
2020/12/09 12:02:58;;;;;;;18.10;11.32;;;3.80;91.30;;;;;;5025712;28;20136;-75
2020/12/09 12:05:27;;;;;;;18.00;11.00;;;3.80;91.60;;;;;;5023565;28;20218;-75
2020/12/09 12:07:53;;;;;;;18.58;10.32;;;3.90;91.10;;;;;;5018297;28;20140;-75
2020/12/09 12:10:20;;;;;;;19.23;11.77;;;3.90;91.00;;;;;;5023807;28;20045;-75
2020/12/09 12:12:47;;;;;;;20.65;12.10;;;3.90;90.90;;;;;;5015225;28;20038;-75
2020/12/09 12:15:14;;;;;;;20.23;12.57;;;3.90;91.10;;;;;;5026083;28;20564;-75
2020/12/09 12:17:41;;;;;;;18.45;10.93;;;4.00;91.20;;;;;;5027280;28;20141;-75
2020/12/09 12:20:07;;;;;;;19.02;12.10;;;4.00;90.70;;;;;;5026733;28;20046;-75
2020/12/09 12:22:34;;;;;;;20.73;13.10;;;4.00;90.90;;;;;;5022044;28;20136;-75
2020/12/09 12:25:00;;;;;;;16.83;10.82;;;4.00;91.00;;;;;;5026637;28;20044;-75
2020/12/09 12:27:27;;;;;;;15.82;10.50;;;4.10;90.60;;;;;;5022725;28;20125;-75
2020/12/09 12:29:53;;;;;;;23.80;14.95;;;4.20;90.30;;;;;;5010973;28;20085;-75
2020/12/09 12:32:19;;;;;;;19.33;12.63;;;4.20;90.00;;;;;;5023716;28;20149;-75
2020/12/09 12:34:46;;;;;;;29.08;16.90;;;4.30;89.70;;;;;;5012626;28;20129;-74
2020/12/09 12:37:12;;;;;;;20.38;12.13;;;4.30;90.00;;;;;;5016876;28;20041;-75
2020/12/09 12:39:39;;;;;;;17.73;11.73;;;4.30;89.40;;;;;;5022084;28;20456;-75
2020/12/09 12:42:05;;;;;;;18.65;10.20;;;4.30;89.90;;;;;;5018279;28;20526;-75
2020/12/09 12:44:31;;;;;;;15.52;10.13;;;4.10;89.80;;;;;;5024240;28;20087;-75